Terminal Aerodrome Forecast
Issued by NWS Houston/Galveston, TX

Home | Current Version | Previous Version | Text Only | Print | Product List | Glossary On
Versions: 1 2 3 4 5 6 7 8 9 10 11 12 13 14 15 16 17 18 19 20 21 22 23 24 25 26 27 28 29 30 31 32 33 34 35 36 37 38 39 40 41 42
000
FTUS44 KHGX 270520
TAFCLL
TAF
KCLL 270520Z 2706/2806 16007KT P6SM OVC013
     FM271000 17004KT 3SM -SHRA BR SCT004 OVC008
     FM271300 33006KT 6SM -DZ BR OVC010
     FM271800 34015KT P6SM BKN012=

USA.gov is the U.S. government's official web portal to all federal, state and local government web resources and services.